createdAt,value
2023-05-14T00:01:37.601Z,101196.41
2023-05-14T00:04:10.132Z,101198.98
2023-05-14T00:06:44.573Z,101202.41
2023-05-14T00:09:16.907Z,101194.56
2023-05-14T00:11:49.938Z,101183.27
2023-05-14T00:14:22.541Z,101188.51
2023-05-14T00:16:54.795Z,101179.84
2023-05-14T00:19:27.109Z,101173.72
2023-05-14T00:21:59.338Z,101172.83
2023-05-14T00:24:31.590Z,101171.91
2023-05-14T00:27:04.648Z,101172.73
2023-05-14T00:29:37.560Z,101170.09
2023-05-14T00:32:10.977Z,101168.38
2023-05-14T00:34:43.259Z,101169.20
2023-05-14T00:37:15.577Z,101167.45
2023-05-14T00:39:48.252Z,101181.31
2023-05-14T00:42:21.187Z,101174.33
2023-05-14T00:44:53.739Z,101168.23
2023-05-14T00:47:26.585Z,101173.44
2023-05-14T00:49:59.104Z,101174.30
2023-05-14T00:52:34.047Z,101173.44
2023-05-14T00:55:09.772Z,101172.54
2023-05-14T00:57:43.094Z,101171.61
2023-05-14T01:00:17.398Z,101169.83
2023-05-14T01:02:48.587Z,101169.78
2023-05-14T01:05:21.638Z,101171.48
2023-05-14T01:08:04.574Z,101173.19
2023-05-14T01:10:47.397Z,101175.74
2023-05-14T01:13:28.311Z,101171.40
2023-05-14T01:16:05.261Z,101174.84
2023-05-14T01:18:40.724Z,101171.36
2023-05-14T01:21:35.156Z,101173.06
2023-05-14T01:24:09.017Z,101169.56
2023-05-14T01:26:46.088Z,101163.48
2023-05-14T01:29:23.288Z,101164.32
2023-05-14T01:31:58.799Z,101165.13
2023-05-14T01:34:34.211Z,101155.53
2023-05-14T01:37:07.812Z,101165.03
2023-05-14T01:39:42.489Z,101164.14
2023-05-14T01:42:15.096Z,101156.39
2023-05-14T01:44:48.510Z,101160.78
2023-05-14T01:47:21.209Z,101160.73
2023-05-14T01:49:54.349Z,101152.04
2023-05-14T01:52:27.079Z,101154.63
2023-05-14T01:55:00.313Z,101154.65
2023-05-14T01:57:33.086Z,101155.50
2023-05-14T02:00:06.832Z,101152.90
2023-05-14T02:02:46.200Z,101155.49
2023-05-14T02:05:21.501Z,101155.48
2023-05-14T02:07:54.103Z,101153.75
2023-05-14T02:10:27.297Z,101164.14
2023-05-14T02:12:59.643Z,101155.49
2023-05-14T02:15:32.010Z,101151.14
2023-05-14T02:18:04.223Z,101148.45
2023-05-14T02:20:36.476Z,101144.95
2023-05-14T02:23:09.563Z,101140.60
2023-05-14T02:25:42.301Z,101140.52
2023-05-14T02:28:14.501Z,101136.12
2023-05-14T02:30:46.925Z,101139.55
2023-05-14T02:33:19.726Z,101136.96
2023-05-14T02:35:52.526Z,101134.37
2023-05-14T02:38:25.501Z,101137.02
2023-05-14T02:40:58.986Z,101130.12
2023-05-14T02:43:31.218Z,101136.16
2023-05-14T02:46:03.957Z,101132.67
2023-05-14T02:48:36.360Z,101140.50
2023-05-14T02:51:10.128Z,101135.32
2023-05-14T02:53:43.579Z,101132.72
2023-05-14T02:56:15.946Z,101140.55
2023-05-14T02:58:48.391Z,101143.20
2023-05-14T03:01:21.885Z,101136.26
2023-05-14T03:04:00.468Z,101133.57
2023-05-14T03:06:32.731Z,101143.91
2023-05-14T03:09:05.001Z,101144.75
2023-05-14T03:11:37.873Z,101146.45
2023-05-14T03:14:10.404Z,101140.35
2023-05-14T03:16:44.379Z,101142.05
2023-05-14T03:19:17.667Z,101142.05
2023-05-14T03:21:50.484Z,101138.61
2023-05-14T03:24:22.845Z,101139.45
2023-05-14T03:26:56.346Z,101129.02
2023-05-14T03:29:29.274Z,101130.77
2023-05-14T03:32:01.473Z,101133.41
2023-05-14T03:34:33.857Z,101133.41
2023-05-14T03:37:06.389Z,101128.28
2023-05-14T03:39:39.564Z,101132.72
2023-05-14T03:42:12.054Z,101129.32
2023-05-14T03:44:44.383Z,101125.88
2023-05-14T03:47:17.232Z,101125.92
2023-05-14T03:49:52.516Z,101136.41
2023-05-14T03:52:24.737Z,101119.17
2023-05-14T03:54:57.754Z,101118.32
2023-05-14T03:57:30.075Z,101118.37
2023-05-14T04:00:02.327Z,101110.66
2023-05-14T04:02:34.871Z,101109.03
2023-05-14T04:05:08.002Z,101109.25
2023-05-14T04:07:40.213Z,101102.16
2023-05-14T04:10:14.286Z,101105.65
2023-05-14T04:12:46.936Z,101096.70
2023-05-14T04:15:19.661Z,101101.14
2023-05-14T04:17:54.756Z,101104.70
2023-05-14T04:20:27.706Z,101101.92
2023-05-14T04:23:00.671Z,101104.65
2023-05-14T04:25:32.997Z,101100.34
2023-05-14T04:28:05.554Z,101105.14
2023-05-14T04:30:38.687Z,101103.84
2023-05-14T04:33:11.501Z,101108.49
2023-05-14T04:35:44.763Z,101105.45
2023-05-14T04:38:17.233Z,101098.37
2023-05-14T04:40:49.644Z,101091.77
2023-05-14T04:43:24.658Z,101096.77
2023-05-14T04:45:58.336Z,101105.08
2023-05-14T04:48:30.939Z,101097.20
2023-05-14T04:51:05.036Z,101093.89
2023-05-14T04:53:39.986Z,101094.90
2023-05-14T04:56:13.228Z,101090.14
2023-05-14T04:58:45.532Z,101086.30
2023-05-14T05:01:17.970Z,101094.28
2023-05-14T05:03:50.420Z,101098.44
2023-05-14T05:06:25.077Z,101095.72
2023-05-14T05:09:01.975Z,101089.20
2023-05-14T05:11:35.120Z,101084.94
2023-05-14T05:14:07.558Z,101083.57
2023-05-14T05:16:41.068Z,101084.80
2023-05-14T05:19:13.520Z,101081.26
2023-05-14T05:21:45.950Z,101085.81
2023-05-14T05:24:18.623Z,101079.19
2023-05-14T05:26:52.525Z,101084.02
2023-05-14T05:29:27.546Z,101089.42
2023-05-14T05:32:00.088Z,101087.87
2023-05-14T05:34:32.517Z,101089.28
2023-05-14T05:37:06.262Z,101090.38
2023-05-14T05:39:39.581Z,101097.11
2023-05-14T05:42:12.003Z,101090.08
2023-05-14T05:44:44.372Z,101094.37
2023-05-14T05:47:17.370Z,101092.64
2023-05-14T05:49:49.890Z,101086.30
2023-05-14T05:52:22.452Z,101090.80
2023-05-14T05:54:55.881Z,101089.92
2023-05-14T05:57:29.978Z,101090.67
2023-05-14T06:00:10.135Z,101086.80
2023-05-14T06:02:45.481Z,101088.20
2023-05-14T06:05:18.652Z,101084.98
2023-05-14T06:07:51.155Z,101087.23
2023-05-14T06:10:26.616Z,101094.47
2023-05-14T06:13:00.152Z,101089.70
2023-05-14T06:15:32.766Z,101092.91
2023-05-14T06:18:05.379Z,101086.26
2023-05-14T06:20:38.689Z,101091.37
2023-05-14T06:23:12.492Z,101089.02
2023-05-14T06:25:44.787Z,101097.04
2023-05-14T06:28:17.271Z,101096.31
2023-05-14T06:30:56.224Z,101096.81
2023-05-14T06:33:31.884Z,101087.87
2023-05-14T06:36:08.191Z,101085.00
2023-05-14T06:38:41.649Z,101087.03
2023-05-14T06:41:14.275Z,101087.52
2023-05-14T06:43:46.544Z,101090.28
2023-05-14T06:46:19.087Z,101091.27
2023-05-14T06:48:51.432Z,101083.41
2023-05-14T06:51:23.867Z,101087.22
2023-05-14T06:54:04.539Z,101084.37
2023-05-14T06:56:37.598Z,101086.91
2023-05-14T06:59:12.865Z,101079.59
2023-05-14T07:01:45.343Z,101078.47
2023-05-14T07:04:22.384Z,101078.22
2023-05-14T07:06:54.730Z,101077.02
2023-05-14T07:09:27.268Z,101070.87
2023-05-14T07:11:59.623Z,101078.55
2023-05-14T07:14:32.255Z,101078.44
2023-05-14T07:17:04.743Z,101079.20
2023-05-14T07:19:37.688Z,101076.42
2023-05-14T07:22:10.326Z,101075.80
2023-05-14T07:24:45.420Z,101074.95
2023-05-14T07:27:18.225Z,101071.37
2023-05-14T07:29:50.802Z,101070.27
2023-05-14T07:32:25.249Z,101077.02
2023-05-14T07:34:57.743Z,101067.83
2023-05-14T07:37:30.126Z,101068.88
2023-05-14T07:40:08.200Z,101063.50
2023-05-14T07:42:41.117Z,101061.45
2023-05-14T07:45:14.013Z,101066.68
2023-05-14T07:47:46.321Z,101061.59
2023-05-14T07:50:19.676Z,101061.85
2023-05-14T07:52:51.941Z,101061.64
2023-05-14T07:55:24.850Z,101053.78
2023-05-14T07:57:57.210Z,101056.30
2023-05-14T08:00:30.746Z,101047.55
2023-05-14T08:03:03.188Z,101055.50
2023-05-14T08:05:35.587Z,101040.95
2023-05-14T08:08:08.546Z,101043.95
2023-05-14T08:10:42.296Z,101037.41
2023-05-14T08:13:13.000Z,101031.64
2023-05-14T08:15:45.288Z,101024.33
2023-05-14T08:18:18.389Z,101021.45
2023-05-14T08:20:51.478Z,101021.86
2023-05-14T08:23:23.853Z,101021.34
2023-05-14T08:25:56.120Z,101027.98
2023-05-14T08:28:28.798Z,101025.73
2023-05-14T08:31:01.262Z,101013.21
2023-05-14T08:33:33.590Z,101017.44
2023-05-14T08:36:08.865Z,101015.00
2023-05-14T08:38:44.436Z,101006.48
2023-05-14T08:41:22.953Z,101006.67
2023-05-14T08:44:10.255Z,101005.65
2023-05-14T08:46:45.654Z,101006.52
2023-05-14T08:49:34.122Z,100997.95
2023-05-14T08:52:08.222Z,100994.00
2023-05-14T08:54:41.350Z,100992.70
2023-05-14T08:57:14.486Z,100991.17
2023-05-14T08:59:47.450Z,100993.81
2023-05-14T09:02:22.218Z,100986.25
2023-05-14T09:04:59.218Z,100980.53
2023-05-14T09:07:31.535Z,100977.23
2023-05-14T09:10:04.231Z,100975.55
2023-05-14T09:12:37.419Z,100978.50
2023-05-14T09:15:11.722Z,100980.39
2023-05-14T09:17:44.524Z,100981.80
2023-05-14T09:20:18.041Z,100977.31
2023-05-14T09:22:48.756Z,100975.72
2023-05-14T09:25:21.122Z,100972.81
2023-05-14T09:27:55.693Z,100970.67
2023-05-14T09:30:30.267Z,100972.77
2023-05-14T09:33:04.304Z,100972.63
2023-05-14T09:35:39.426Z,100967.99
2023-05-14T09:38:12.405Z,100973.24
2023-05-14T09:40:44.663Z,100967.19
2023-05-14T09:43:16.944Z,100959.94
2023-05-14T09:45:49.362Z,100965.16
2023-05-14T09:48:22.596Z,100966.52
2023-05-14T09:50:54.939Z,100967.27
2023-05-14T09:53:27.682Z,100958.06
2023-05-14T09:56:00.180Z,100950.38
2023-05-14T09:58:32.689Z,100948.84
2023-05-14T10:01:06.322Z,100945.80
2023-05-14T10:03:40.674Z,100949.73
2023-05-14T10:06:15.114Z,100943.40
2023-05-14T10:08:49.928Z,100945.61
2023-05-14T10:11:26.557Z,100938.90
2023-05-14T10:14:10.911Z,100938.77
2023-05-14T10:16:48.342Z,100941.19
2023-05-14T10:19:22.470Z,100931.42
2023-05-14T10:22:01.116Z,100927.63
2023-05-14T10:24:34.363Z,100923.38
2023-05-14T10:27:05.159Z,100924.36
2023-05-14T10:29:39.893Z,100926.05
2023-05-14T10:32:13.552Z,100918.15
2023-05-14T10:34:46.513Z,100919.23
2023-05-14T10:37:21.118Z,100913.54
2023-05-14T10:39:55.587Z,100912.67
2023-05-14T10:42:30.057Z,100914.03
2023-05-14T10:45:06.007Z,100907.16
2023-05-14T10:47:40.284Z,100906.19
2023-05-14T10:50:15.334Z,100904.45
2023-05-14T10:52:48.252Z,100898.63
2023-05-14T10:55:20.497Z,100888.30
2023-05-14T10:57:53.689Z,100882.20
2023-05-14T11:00:27.993Z,100877.13
2023-05-14T11:03:01.783Z,100878.48
2023-05-14T11:05:39.432Z,100876.08
2023-05-14T11:08:13.147Z,100864.88
2023-05-14T11:10:47.279Z,100852.34
2023-05-14T11:13:20.368Z,100854.13
2023-05-14T11:15:53.484Z,100846.28
2023-05-14T11:18:31.194Z,100843.80
2023-05-14T11:21:03.802Z,100850.33
2023-05-14T11:23:36.081Z,100857.30
2023-05-14T11:26:09.013Z,100845.20
2023-05-14T11:28:42.462Z,100847.45
2023-05-14T11:31:15.696Z,100822.97
2023-05-14T11:33:47.994Z,100816.37
2023-05-14T11:36:20.289Z,100816.00
2023-05-14T11:38:52.847Z,100806.02
2023-05-14T11:41:28.255Z,100802.59
2023-05-14T11:44:01.102Z,100793.72
2023-05-14T11:46:33.456Z,100792.38
2023-05-14T11:49:09.546Z,100786.18
2023-05-14T11:51:41.953Z,100805.55
2023-05-14T11:54:16.945Z,100787.96
2023-05-14T11:56:54.085Z,100783.70
2023-05-14T11:59:27.250Z,100779.35
2023-05-14T12:01:59.861Z,100769.61
2023-05-14T12:04:32.570Z,100778.95
2023-05-14T12:07:11.813Z,100764.08
2023-05-14T12:09:49.619Z,100769.69
2023-05-14T12:12:23.831Z,100762.47
2023-05-14T12:14:56.199Z,100768.55
2023-05-14T12:17:28.564Z,100764.74
2023-05-14T12:20:01.771Z,100760.30
2023-05-14T12:22:32.478Z,100771.48
2023-05-14T12:25:05.196Z,100761.39
2023-05-14T12:27:40.823Z,100756.78
2023-05-14T12:32:53.128Z,100750.75
2023-05-14T12:35:25.882Z,100752.17
2023-05-14T12:37:58.323Z,100746.20
2023-05-14T12:40:30.639Z,100735.81
2023-05-14T12:43:04.394Z,100748.59
2023-05-14T12:45:36.640Z,100738.10
2023-05-14T12:48:09.860Z,100738.45
2023-05-14T12:50:42.273Z,100732.23
2023-05-14T12:53:16.543Z,100727.50
2023-05-14T12:55:49.852Z,100733.75
2023-05-14T12:58:22.215Z,100721.34
2023-05-14T13:00:54.857Z,100715.98
2023-05-14T13:03:27.951Z,100710.73
2023-05-14T13:06:00.487Z,100709.67
2023-05-14T13:08:32.797Z,100730.08
2023-05-14T13:11:05.051Z,100715.34
2023-05-14T13:13:39.542Z,100714.86
2023-05-14T13:16:17.049Z,100713.05
2023-05-14T13:18:49.693Z,100714.02
2023-05-14T13:21:22.756Z,100706.83
2023-05-14T13:23:55.112Z,100707.19
2023-05-14T13:26:28.471Z,100711.60
2023-05-14T13:29:01.241Z,100707.61
2023-05-14T13:31:34.065Z,100704.80
2023-05-14T13:34:08.325Z,100700.16
2023-05-14T13:36:40.949Z,100689.73
2023-05-14T13:39:14.437Z,100687.38
2023-05-14T13:41:47.023Z,100688.22
2023-05-14T13:44:19.509Z,100682.58
2023-05-14T13:46:51.917Z,100680.17
2023-05-14T13:49:24.375Z,100678.08
2023-05-14T13:51:56.605Z,100678.98
2023-05-14T13:54:28.926Z,100673.04
2023-05-14T13:57:01.222Z,100662.69
2023-05-14T13:59:33.635Z,100652.25
2023-05-14T14:02:07.225Z,100648.16
2023-05-14T14:04:40.295Z,100655.64
2023-05-14T14:07:12.646Z,100648.86
2023-05-14T14:09:45.376Z,100648.13
2023-05-14T14:12:17.754Z,100650.01
2023-05-14T14:14:51.131Z,100638.41
2023-05-14T14:17:25.387Z,100630.87
2023-05-14T14:19:57.839Z,100635.12
2023-05-14T14:22:30.200Z,100625.52
2023-05-14T14:25:02.877Z,100620.40
2023-05-14T14:27:39.679Z,100630.23
2023-05-14T14:30:16.842Z,100621.27
2023-05-14T14:32:50.002Z,100623.19
2023-05-14T14:35:23.218Z,100617.02
2023-05-14T14:37:55.942Z,100617.73
2023-05-14T14:40:28.476Z,100616.45
2023-05-14T14:43:02.571Z,100615.94
2023-05-14T14:45:35.027Z,100618.72
2023-05-14T14:48:25.264Z,100618.62
2023-05-14T14:50:58.972Z,100603.15
2023-05-14T14:53:41.552Z,100607.61
2023-05-14T14:56:14.965Z,100610.28
2023-05-14T14:58:47.337Z,100601.97
2023-05-14T15:01:19.875Z,100600.58
2023-05-14T15:03:52.774Z,100591.81
2023-05-14T15:06:25.091Z,100593.29
2023-05-14T15:08:57.656Z,100596.14
2023-05-14T15:11:30.654Z,100592.97
2023-05-14T15:14:08.171Z,100598.23
2023-05-14T15:16:44.701Z,100587.00
2023-05-14T15:19:17.345Z,100591.11
2023-05-14T15:21:50.428Z,100587.80
2023-05-14T15:24:24.187Z,100587.23
2023-05-14T15:26:56.670Z,100584.32
2023-05-14T15:29:29.101Z,100582.41
2023-05-14T15:32:06.812Z,100576.03
2023-05-14T15:34:44.682Z,100578.80
2023-05-14T15:37:17.119Z,100575.84
2023-05-14T15:39:49.599Z,100581.67
2023-05-14T15:42:22.280Z,100572.44
2023-05-14T15:44:54.634Z,100575.39
2023-05-14T15:47:27.441Z,100578.22
2023-05-14T15:50:00.080Z,100569.73
2023-05-14T15:52:33.826Z,100571.06
2023-05-14T15:55:05.054Z,100570.47
2023-05-14T15:57:40.642Z,100575.50
2023-05-14T16:00:15.097Z,100565.98
2023-05-14T16:02:47.638Z,100565.22
2023-05-14T16:05:20.405Z,100564.20
2023-05-14T16:07:53.129Z,100556.89
2023-05-14T16:10:26.206Z,100559.34
2023-05-14T16:12:58.752Z,100554.63
2023-05-14T16:15:31.312Z,100558.89
2023-05-14T16:18:04.323Z,100559.66
2023-05-14T16:20:36.584Z,100557.84
2023-05-14T16:23:09.109Z,100556.05
2023-05-14T16:25:44.034Z,100556.16
2023-05-14T16:28:16.753Z,100536.02
2023-05-14T16:30:49.286Z,100531.92
2023-05-14T16:33:21.467Z,100530.31
2023-05-14T16:35:54.285Z,100529.44
2023-05-14T16:38:27.006Z,100529.72
2023-05-14T16:40:59.324Z,100523.75
2023-05-14T16:43:31.489Z,100531.13
2023-05-14T16:46:03.933Z,100528.84
2023-05-14T16:48:36.245Z,100521.33
2023-05-14T16:51:10.831Z,100530.61
2023-05-14T16:53:43.360Z,100523.09
2023-05-14T16:56:16.017Z,100522.59
2023-05-14T16:58:48.296Z,100519.37
2023-05-14T17:01:20.646Z,100518.83
2023-05-14T17:03:54.627Z,100516.52
2023-05-14T17:06:27.847Z,100521.31
2023-05-14T17:09:00.234Z,100521.01
2023-05-14T17:11:33.068Z,100513.55
2023-05-14T17:14:04.149Z,100508.77
2023-05-14T17:16:42.466Z,100516.20
2023-05-14T17:19:13.783Z,100514.95
2023-05-14T17:21:46.189Z,100518.86
2023-05-14T17:24:18.627Z,100514.84
2023-05-14T17:26:50.961Z,100518.69
2023-05-14T17:29:23.451Z,100513.70
2023-05-14T17:31:56.107Z,100513.23
2023-05-14T17:34:28.676Z,100517.95
2023-05-14T17:37:01.144Z,100511.34
2023-05-14T17:39:33.390Z,100514.33
2023-05-14T17:42:06.420Z,100512.08
2023-05-14T17:44:41.606Z,100508.02
2023-05-14T17:47:14.020Z,100512.88
2023-05-14T17:49:46.578Z,100503.55
2023-05-14T17:52:19.334Z,100508.39
2023-05-14T17:54:51.721Z,100502.61
2023-05-14T17:57:24.255Z,100507.45
2023-05-14T17:59:56.635Z,100511.38
2023-05-14T18:02:29.271Z,100512.73
2023-05-14T18:05:03.483Z,100506.88
2023-05-14T18:07:36.577Z,100506.38
2023-05-14T18:10:11.650Z,100502.42
2023-05-14T18:12:46.424Z,100510.03
2023-05-14T18:15:20.326Z,100504.68
2023-05-14T18:21:17.800Z,100501.87
2023-05-14T18:23:50.239Z,100503.41
2023-05-14T18:26:23.429Z,100510.17
2023-05-14T18:28:55.945Z,100509.92
2023-05-14T18:31:28.979Z,100505.31
2023-05-14T18:34:02.026Z,100513.00
2023-05-14T18:36:34.664Z,100512.66
2023-05-14T18:39:06.991Z,100510.58
2023-05-14T18:41:45.415Z,100507.53
2023-05-14T18:44:17.965Z,100513.27
2023-05-14T18:46:50.545Z,100513.70
2023-05-14T18:49:22.936Z,100512.36
2023-05-14T18:51:55.246Z,100512.59
2023-05-14T18:54:27.635Z,100521.68
2023-05-14T18:57:00.344Z,100514.94
2023-05-14T18:59:32.729Z,100515.16
2023-05-14T19:02:05.202Z,100515.53
2023-05-14T19:04:50.771Z,100514.98
2023-05-14T19:07:24.862Z,100503.04
2023-05-14T19:10:10.065Z,100511.41
2023-05-14T19:12:44.828Z,100506.70
2023-05-14T19:15:17.307Z,100497.52
2023-05-14T19:17:49.675Z,100495.36
2023-05-14T19:20:22.515Z,100485.30
2023-05-14T19:22:55.350Z,100489.28
2023-05-14T19:25:28.017Z,100488.86
2023-05-14T19:28:01.746Z,100482.16
2023-05-14T19:30:34.131Z,100484.23
2023-05-14T19:33:06.674Z,100493.25
2023-05-14T19:35:39.387Z,100491.84
2023-05-14T19:38:11.934Z,100487.64
2023-05-14T19:40:45.704Z,100481.78
2023-05-14T19:43:17.986Z,100482.08
2023-05-14T19:45:50.829Z,100482.32
2023-05-14T19:48:23.171Z,100476.39
2023-05-14T19:50:55.902Z,100475.66
2023-05-14T19:53:30.952Z,100472.36
2023-05-14T19:56:03.815Z,100477.88
2023-05-14T19:58:36.480Z,100476.33
2023-05-14T20:01:09.756Z,100474.75
2023-05-14T20:03:42.552Z,100469.63
2023-05-14T20:06:15.149Z,100467.97
2023-05-14T20:08:47.672Z,100466.30
2023-05-14T20:11:20.091Z,100465.56
2023-05-14T20:13:52.349Z,100462.98
2023-05-14T20:16:27.905Z,100456.83
2023-05-14T20:19:01.593Z,100464.72
2023-05-14T20:21:34.997Z,100466.52
2023-05-14T20:24:07.932Z,100461.32
2023-05-14T20:26:42.819Z,100464.83
2023-05-14T20:29:15.803Z,100457.03
2023-05-14T20:31:48.206Z,100455.30
2023-05-14T20:34:20.475Z,100450.11
2023-05-14T20:36:53.258Z,100447.42
2023-05-14T20:39:27.871Z,100443.84
2023-05-14T20:42:02.967Z,100443.89
2023-05-14T20:44:35.776Z,100438.58
2023-05-14T20:47:09.325Z,100441.19
2023-05-14T20:49:42.724Z,100434.10
2023-05-14T20:52:15.387Z,100432.03
2023-05-14T20:54:47.688Z,100423.08
2023-05-14T20:57:20.709Z,100422.78
2023-05-14T20:59:53.090Z,100413.78
2023-05-14T21:02:25.694Z,100403.88
2023-05-14T21:05:04.623Z,100410.61
2023-05-14T21:07:38.106Z,100404.29
2023-05-14T21:10:12.423Z,100406.77
2023-05-14T21:12:45.165Z,100406.67
2023-05-14T21:15:17.455Z,100398.62
2023-05-14T21:17:49.859Z,100400.28
2023-05-14T21:20:22.432Z,100398.38
2023-05-14T21:22:54.856Z,100393.92
2023-05-14T21:25:27.996Z,100390.33
2023-05-14T21:28:00.542Z,100388.41
2023-05-14T21:30:34.430Z,100390.88
2023-05-14T21:33:07.173Z,100392.63
2023-05-14T21:35:39.631Z,100392.63
2023-05-14T21:38:12.053Z,100385.55
2023-05-14T21:40:44.284Z,100387.27
2023-05-14T21:43:16.660Z,100379.37
2023-05-14T21:45:49.440Z,100380.29
2023-05-14T21:48:23.026Z,100372.40
2023-05-14T21:50:56.135Z,100372.47
2023-05-14T21:53:28.707Z,100368.95
2023-05-14T21:56:03.944Z,100364.57
2023-05-14T21:58:36.651Z,100375.78
2023-05-14T22:01:11.792Z,100369.44
2023-05-14T22:03:45.337Z,100362.25
2023-05-14T22:06:20.087Z,100360.43
2023-05-14T22:08:52.349Z,100351.59
2023-05-14T22:11:24.716Z,100356.86
2023-05-14T22:13:56.914Z,100346.47
2023-05-14T22:16:29.624Z,100342.05
2023-05-14T22:19:06.459Z,100342.92
2023-05-14T22:21:41.575Z,100338.44
2023-05-14T22:24:14.019Z,100341.06
2023-05-14T22:26:46.603Z,100337.49
2023-05-14T22:29:18.917Z,100334.80
2023-05-14T22:31:51.478Z,100339.98
2023-05-14T22:34:23.879Z,100328.62
2023-05-14T22:36:56.281Z,100326.90
2023-05-14T22:39:28.779Z,100322.52
2023-05-14T22:42:01.832Z,100321.64
2023-05-14T22:44:36.012Z,100318.16
2023-05-14T22:47:09.817Z,100312.94
2023-05-14T22:49:43.785Z,100307.67
2023-05-14T22:52:14.515Z,100311.11
2023-05-14T22:54:47.189Z,100299.78
2023-05-14T22:57:19.527Z,100293.67
2023-05-14T22:59:52.188Z,100291.95
2023-05-14T23:02:24.748Z,100296.41
2023-05-14T23:04:57.989Z,100287.70
2023-05-14T23:07:30.487Z,100289.49
2023-05-14T23:10:02.806Z,100285.14
2023-05-14T23:12:35.185Z,100285.21
2023-05-14T23:15:09.412Z,100275.64
2023-05-14T23:17:42.828Z,100273.98
2023-05-14T23:20:15.586Z,100274.16
2023-05-14T23:22:48.622Z,100273.34
2023-05-14T23:25:21.335Z,100267.28
2023-05-14T23:27:53.675Z,100273.45
2023-05-14T23:30:26.362Z,100264.78
2023-05-14T23:32:58.702Z,100259.56
2023-05-14T23:35:31.363Z,100258.72
2023-05-14T23:38:05.172Z,100252.65
2023-05-14T23:40:37.390Z,100251.84
2023-05-14T23:43:10.861Z,100247.55
2023-05-14T23:45:45.049Z,100246.75
2023-05-14T23:48:17.521Z,100242.47
2023-05-14T23:50:49.812Z,100234.68
2023-05-14T23:53:22.310Z,100233.03
2023-05-14T23:55:55.238Z,100227.03
2023-05-14T23:58:27.561Z,100231.48
